Time;durP1;ratioP1;P1;durP2;ratioP2;P2;SDS_P1;SDS_P2;PMS_P1;PMS_P2;Temp;Humidity;BMP_temperature;BMP_pressure;BME280_temperature;BME280_humidity;BME280_pressure;Samples;Min_cycle;Max_cycle;Signal;HPM_P1;HPM_P2
2023/03/12 00:02:14;;;;;;;6.30;5.47;;;3.10;99.90;;;;;;5055410;28;20457;-49
2023/03/12 00:04:41;;;;;;;7.57;6.20;;;3.00;99.90;;;;;;5054714;28;20462;-52
2023/03/12 00:07:07;;;;;;;7.40;5.70;;;2.90;99.90;;;;;;5054048;28;21083;-50
2023/03/12 00:09:36;;;;;;;7.00;6.03;;;2.80;99.90;;;;;;5054236;28;20518;-51
2023/03/12 00:12:03;;;;;;;8.80;6.50;;;2.70;99.90;;;;;;5054174;28;20444;-53
2023/03/12 00:14:32;;;;;;;7.10;5.53;;;2.60;99.90;;;;;;5051050;28;20993;-50
2023/03/12 00:16:59;;;;;;;8.80;4.83;;;2.80;99.90;;;;;;5054209;28;20491;-49
2023/03/12 00:19:26;;;;;;;7.43;5.60;;;2.70;99.90;;;;;;5053509;28;20467;-52
2023/03/12 00:21:53;;;;;;;7.03;5.40;;;2.90;99.90;;;;;;5053290;28;20436;-50
2023/03/12 00:24:20;;;;;;;7.17;6.07;;;2.70;99.90;;;;;;5054292;28;20473;-54
2023/03/12 00:26:47;;;;;;;9.83;7.17;;;2.10;99.90;;;;;;5053830;28;21100;-51
2023/03/12 00:29:14;;;;;;;8.40;7.07;;;2.30;99.90;;;;;;5054234;28;20461;-51
2023/03/12 00:31:42;;;;;;;7.40;5.90;;;2.30;99.90;;;;;;5053785;28;20525;-49
2023/03/12 00:34:09;;;;;;;10.73;8.43;;;2.30;99.90;;;;;;5054512;28;20535;-50
2023/03/12 00:36:36;;;;;;;8.53;6.57;;;2.60;99.90;;;;;;5053621;28;20509;-53
2023/03/12 00:39:04;;;;;;;8.40;6.87;;;2.70;99.90;;;;;;5053875;28;20835;-51
2023/03/12 00:41:31;;;;;;;8.93;8.03;;;2.80;99.90;;;;;;5053437;28;20438;-53
2023/03/12 00:43:58;;;;;;;8.00;6.57;;;2.80;99.90;;;;;;5055466;28;20892;-51
2023/03/12 00:46:25;;;;;;;10.57;8.30;;;2.80;99.90;;;;;;5054118;28;20560;-51
2023/03/12 00:48:53;;;;;;;8.17;7.17;;;2.80;99.90;;;;;;5053937;28;20440;-50
2023/03/12 00:51:20;;;;;;;9.37;7.23;;;2.50;99.90;;;;;;5053211;28;20473;-50
2023/03/12 00:53:47;;;;;;;7.73;6.93;;;2.50;99.90;;;;;;5054072;28;20460;-51
2023/03/12 00:56:14;;;;;;;8.33;7.47;;;2.60;99.90;;;;;;5053879;28;20525;-50
2023/03/12 00:58:42;;;;;;;7.77;6.67;;;2.50;99.90;;;;;;5053437;28;20519;-54
2023/03/12 01:01:09;;;;;;;8.43;7.30;;;2.70;99.90;;;;;;5052722;28;20452;-49
2023/03/12 01:03:36;;;;;;;8.33;7.27;;;2.80;99.90;;;;;;5054013;28;20535;-50
2023/03/12 01:06:05;;;;;;;10.20;7.30;;;2.80;99.90;;;;;;5053767;28;20874;-50
2023/03/12 01:08:32;;;;;;;8.40;6.73;;;2.50;99.90;;;;;;5051719;28;20517;-49
2023/03/12 01:11:00;;;;;;;7.40;6.67;;;2.70;99.90;;;;;;5053406;28;20651;-50
2023/03/12 01:13:27;;;;;;;8.23;6.80;;;2.70;99.90;;;;;;5053137;28;20532;-51
2023/03/12 01:15:54;;;;;;;9.53;6.77;;;2.40;99.90;;;;;;5053420;28;20467;-49
2023/03/12 01:18:20;;;;;;;7.80;6.80;;;2.60;99.90;;;;;;5053100;28;20486;-51
2023/03/12 01:20:48;;;;;;;7.40;6.60;;;2.50;99.90;;;;;;5053762;28;20531;-50
2023/03/12 01:23:16;;;;;;;8.00;7.23;;;2.60;99.90;;;;;;5054902;28;20512;-51
2023/03/12 01:25:43;;;;;;;8.70;7.80;;;2.70;99.90;;;;;;5054592;28;20566;-50
2023/03/12 01:28:10;;;;;;;9.93;7.60;;;2.90;99.90;;;;;;5054830;28;20499;-50
2023/03/12 01:30:37;;;;;;;7.73;6.93;;;3.00;99.90;;;;;;5054115;28;20481;-56
2023/03/12 01:33:04;;;;;;;10.10;7.07;;;2.80;99.90;;;;;;5054988;28;20976;-51
2023/03/12 01:35:31;;;;;;;10.20;7.87;;;2.60;99.90;;;;;;5054416;28;20517;-49
2023/03/12 01:37:57;;;;;;;8.10;7.30;;;2.70;99.90;;;;;;5054622;28;20545;-51
2023/03/12 01:40:27;;;;;;;8.47;7.60;;;2.90;99.90;;;;;;5061936;28;20474;-51
2023/03/12 01:42:55;;;;;;;8.73;7.90;;;3.10;99.90;;;;;;5074923;28;20473;-50
2023/03/12 01:45:58;;;;;;;7.20;6.50;;;3.10;99.90;;;;;;5078123;28;20475;-50
2023/03/12 01:48:27;;;;;;;7.60;7.00;;;3.20;99.90;;;;;;5077452;28;20997;-51
2023/03/12 01:50:54;;;;;;;7.47;6.77;;;3.30;99.90;;;;;;5077331;28;20499;-52
2023/03/12 01:53:21;;;;;;;8.80;7.77;;;3.40;99.90;;;;;;5077597;28;20486;-50
2023/03/12 01:55:50;;;;;;;6.77;6.07;;;3.40;99.90;;;;;;5076829;28;20463;-51
2023/03/12 01:58:18;;;;;;;7.33;6.40;;;3.40;99.90;;;;;;5078289;28;20888;-50
2023/03/12 02:00:45;;;;;;;9.43;6.70;;;3.30;99.90;;;;;;5078127;28;20477;-49
2023/03/12 02:03:13;;;;;;;7.23;6.50;;;3.30;99.90;;;;;;5077767;28;20496;-52
2023/03/12 02:05:47;;;;;;;8.30;7.47;;;3.00;99.90;;;;;;5075773;28;20442;-50
2023/03/12 02:08:16;;;;;;;7.30;6.60;;;2.60;99.90;;;;;;5078600;28;20462;-51
2023/03/12 02:10:43;;;;;;;7.57;6.87;;;2.80;99.90;;;;;;5078192;28;20466;-51
2023/03/12 02:13:12;;;;;;;7.93;7.07;;;2.70;99.90;;;;;;5072368;28;20512;-49
2023/03/12 02:15:40;;;;;;;9.33;8.33;;;2.30;99.90;;;;;;5056917;28;20484;-50
2023/03/12 02:18:11;;;;;;;8.73;7.93;;;2.10;99.90;;;;;;5056563;28;20459;-51
2023/03/12 02:20:47;;;;;;;9.07;8.17;;;1.90;99.90;;;;;;5055797;28;20538;-51
2023/03/12 02:23:21;;;;;;;10.10;7.13;;;2.10;99.90;;;;;;5056725;28;20441;-50
2023/03/12 02:25:51;;;;;;;8.80;7.90;;;2.10;99.90;;;;;;5056734;28;20561;-50
2023/03/12 02:28:22;;;;;;;8.63;7.77;;;2.30;99.90;;;;;;5064999;28;20494;-50
2023/03/12 02:30:52;;;;;;;8.47;7.57;;;2.50;99.90;;;;;;5076594;28;20513;-50
2023/03/12 02:33:19;;;;;;;10.53;7.97;;;2.70;99.90;;;;;;5074994;28;20473;-51
2023/03/12 02:35:48;;;;;;;8.00;7.20;;;2.90;99.90;;;;;;5076957;28;20472;-50
2023/03/12 02:38:35;;;;;;;9.20;7.57;;;3.00;99.90;;;;;;5074654;28;20562;-51
2023/03/12 02:41:08;;;;;;;8.03;7.23;;;3.20;99.90;;;;;;5075971;28;20503;-51
2023/03/12 02:43:35;;;;;;;10.93;7.40;;;3.20;99.90;;;;;;5077559;28;20475;-50
2023/03/12 02:46:02;;;;;;;8.73;7.93;;;3.30;99.90;;;;;;5072306;28;20921;-52
2023/03/12 02:48:29;;;;;;;9.37;7.70;;;3.30;99.90;;;;;;5057186;28;20498;-51
2023/03/12 02:50:56;;;;;;;9.03;8.13;;;3.20;99.90;;;;;;5057330;28;20529;-51
2023/03/12 02:53:23;;;;;;;9.10;7.50;;;3.10;99.90;;;;;;5057585;28;20483;-51
2023/03/12 02:55:50;;;;;;;9.03;7.70;;;3.10;99.90;;;;;;5057275;28;20479;-50
2023/03/12 02:58:18;;;;;;;9.67;7.33;;;3.20;99.90;;;;;;5056825;28;20546;-52
2023/03/12 03:00:45;;;;;;;10.13;7.97;;;3.30;99.90;;;;;;5056572;28;20822;-51
2023/03/12 03:03:12;;;;;;;8.63;7.30;;;3.40;99.90;;;;;;5056629;28;20532;-51
2023/03/12 03:05:39;;;;;;;8.30;7.40;;;3.40;99.90;;;;;;5057287;28;20875;-50
2023/03/12 03:08:06;;;;;;;13.13;7.90;;;3.30;99.90;;;;;;5077004;28;20575;-50
2023/03/12 03:10:33;;;;;;;8.63;7.73;;;3.40;99.90;;;;;;5076495;28;20515;-50
2023/03/12 03:13:00;;;;;;;10.70;8.83;;;3.10;99.90;;;;;;5075202;28;21009;-50
2023/03/12 03:15:29;;;;;;;13.13;8.53;;;2.60;99.90;;;;;;5075120;28;20538;-51
2023/03/12 03:17:57;;;;;;;11.33;10.10;;;2.30;99.90;;;;;;5075137;28;20459;-50
2023/03/12 03:20:25;;;;;;;10.73;9.63;;;2.00;99.90;;;;;;5073814;28;20605;-53
2023/03/12 03:22:52;;;;;;;10.20;9.27;;;2.10;99.90;;;;;;5056273;28;20446;-52
2023/03/12 03:25:21;;;;;;;10.93;9.17;;;2.30;99.90;;;;;;5056340;28;20484;-50
2023/03/12 03:27:48;;;;;;;11.97;9.70;;;2.40;99.90;;;;;;5056145;28;20900;-50
2023/03/12 03:30:16;;;;;;;8.97;7.40;;;2.50;99.90;;;;;;5061307;28;20475;-50
2023/03/12 03:32:44;;;;;;;10.10;8.63;;;2.80;99.90;;;;;;5071713;28;20534;-52
2023/03/12 03:35:11;;;;;;;12.40;8.60;;;2.60;99.90;;;;;;5035616;28;20546;-50
2023/03/12 03:37:38;;;;;;;9.93;7.50;;;2.40;99.90;;;;;;5037949;28;20562;-49
2023/03/12 03:40:10;;;;;;;10.47;8.40;;;2.40;99.90;;;;;;5034241;28;20928;-51
2023/03/12 03:42:37;;;;;;;12.43;8.63;;;2.60;99.90;;;;;;5070842;28;20490;-51
2023/03/12 03:45:05;;;;;;;12.13;8.57;;;2.60;99.90;;;;;;5074779;28;20471;-50
2023/03/12 03:47:32;;;;;;;11.30;9.60;;;2.40;99.90;;;;;;5074430;28;20515;-49
2023/03/12 03:50:00;;;;;;;10.20;8.10;;;2.40;99.90;;;;;;5074534;28;20443;-51
2023/03/12 03:52:27;;;;;;;9.60;8.23;;;2.10;99.90;;;;;;5075397;28;20484;-52
2023/03/12 03:54:55;;;;;;;10.30;9.20;;;2.20;99.90;;;;;;5074898;28;20805;-55
2023/03/12 03:57:23;;;;;;;10.77;9.67;;;2.30;99.90;;;;;;5072273;28;20998;-50
2023/03/12 03:59:50;;;;;;;11.90;8.07;;;2.60;99.90;;;;;;5074559;28;20439;-52
2023/03/12 04:02:17;;;;;;;11.00;9.57;;;2.40;99.90;;;;;;5074896;28;20543;-50
2023/03/12 04:04:44;;;;;;;12.77;9.80;;;2.50;99.90;;;;;;5074476;28;20503;-50
2023/03/12 04:07:12;;;;;;;11.30;9.40;;;2.50;99.90;;;;;;5073175;28;20512;-51
2023/03/12 04:09:39;;;;;;;11.47;9.03;;;2.60;99.90;;;;;;5074427;28;20539;-50
2023/03/12 04:12:07;;;;;;;11.87;9.57;;;2.80;99.90;;;;;;5073640;28;20486;-53
2023/03/12 04:14:33;;;;;;;11.80;10.47;;;2.70;99.90;;;;;;5075027;28;20528;-50
2023/03/12 04:17:00;;;;;;;9.77;8.77;;;2.70;99.90;;;;;;5073038;28;20540;-52
2023/03/12 04:19:27;;;;;;;9.60;8.60;;;2.40;99.90;;;;;;5073870;28;20492;-51
2023/03/12 04:21:54;;;;;;;12.00;9.50;;;2.30;99.90;;;;;;5074018;28;20464;-49
2023/03/12 04:24:22;;;;;;;10.87;9.33;;;2.40;99.90;;;;;;5074932;28;20473;-50
2023/03/12 04:26:50;;;;;;;12.10;9.60;;;2.50;99.90;;;;;;5074436;28;20571;-51
2023/03/12 04:29:17;;;;;;;13.03;9.90;;;2.50;99.90;;;;;;5068363;28;20494;-52
2023/03/12 04:31:44;;;;;;;12.63;9.67;;;2.60;99.90;;;;;;5054623;28;20441;-50
2023/03/12 04:34:11;;;;;;;11.43;9.97;;;2.60;99.90;;;;;;5054192;28;20492;-51
2023/03/12 04:36:38;;;;;;;9.80;8.80;;;2.60;99.90;;;;;;5054117;28;20485;-50
2023/03/12 04:39:06;;;;;;;12.13;9.60;;;2.50;99.90;;;;;;5054064;28;20525;-52
2023/03/12 04:41:35;;;;;;;11.50;9.90;;;2.30;99.90;;;;;;5054035;28;20442;-49
2023/03/12 04:44:03;;;;;;;10.67;9.47;;;2.40;99.90;;;;;;5063474;28;20522;-51
2023/03/12 04:46:30;;;;;;;10.40;9.20;;;2.60;99.90;;;;;;5066409;28;20547;-51
2023/03/12 04:49:01;;;;;;;12.33;10.20;;;2.70;99.90;;;;;;5053561;28;20882;-50
2023/03/12 04:51:28;;;;;;;12.00;9.00;;;2.60;99.90;;;;;;5053696;28;20824;-52
2023/03/12 04:53:55;;;;;;;13.70;10.10;;;2.70;99.90;;;;;;5054492;28;20805;-50
2023/03/12 04:56:22;;;;;;;12.40;9.63;;;2.60;99.90;;;;;;5053362;28;20529;-50
2023/03/12 04:58:51;;;;;;;14.30;11.10;;;2.60;99.90;;;;;;5062336;28;20508;-56
2023/03/12 05:01:23;;;;;;;12.63;11.07;;;2.50;99.90;;;;;;5071124;28;20466;-52
2023/03/12 05:03:50;;;;;;;13.00;11.23;;;2.60;99.90;;;;;;5054656;28;20442;-50
2023/03/12 05:06:18;;;;;;;12.00;10.43;;;2.40;99.90;;;;;;5055538;28;20946;-50
2023/03/12 05:08:45;;;;;;;11.83;10.00;;;2.50;99.90;;;;;;5073478;28;20486;-52
2023/03/12 05:11:13;;;;;;;14.53;10.70;;;2.20;99.90;;;;;;5072819;28;20489;-51
2023/03/12 05:13:40;;;;;;;14.50;12.17;;;2.30;99.90;;;;;;5064904;28;20500;-49
2023/03/12 05:16:09;;;;;;;13.80;10.33;;;2.40;99.90;;;;;;5054076;28;20529;-49
2023/03/12 05:18:36;;;;;;;14.27;11.63;;;2.40;99.90;;;;;;5055344;28;20487;-51
2023/03/12 05:21:05;;;;;;;12.90;11.60;;;2.30;99.90;;;;;;5057460;28;20438;-51
2023/03/12 05:23:32;;;;;;;14.37;11.43;;;2.10;99.90;;;;;;5057646;28;20866;-51
2023/03/12 05:26:00;;;;;;;19.40;12.20;;;2.30;99.90;;;;;;5057586;28;20476;-52
2023/03/12 05:28:27;;;;;;;16.13;12.03;;;2.40;99.90;;;;;;5058717;28;20996;-50
2023/03/12 05:30:55;;;;;;;12.53;11.23;;;2.40;99.90;;;;;;5057240;28;20525;-52
2023/03/12 05:33:23;;;;;;;14.40;12.67;;;2.20;99.90;;;;;;5057306;28;20483;-53
2023/03/12 05:35:51;;;;;;;13.20;11.17;;;1.90;99.90;;;;;;5057368;28;20952;-51
2023/03/12 05:38:18;;;;;;;15.13;11.77;;;1.90;99.90;;;;;;5057072;28;20538;-50
2023/03/12 05:40:52;;;;;;;16.00;12.40;;;1.90;99.90;;;;;;5057135;28;20445;-52
2023/03/12 05:43:19;;;;;;;16.43;12.87;;;2.10;99.90;;;;;;5076698;28;20445;-49
2023/03/12 05:45:46;;;;;;;14.67;13.17;;;2.30;99.90;;;;;;5077569;28;20468;-50
2023/03/12 05:48:12;;;;;;;16.07;13.93;;;2.10;99.90;;;;;;5077214;28;20510;-51
2023/03/12 05:50:41;;;;;;;18.27;12.23;;;2.20;99.90;;;;;;5076240;28;20481;-49
2023/03/12 05:53:08;;;;;;;15.47;12.87;;;2.40;99.90;;;;;;5077684;28;20554;-50
2023/03/12 05:55:35;;;;;;;18.23;13.00;;;2.40;99.90;;;;;;5068669;28;20501;-50
2023/03/12 05:58:03;;;;;;;15.43;13.63;;;2.30;99.90;;;;;;5057425;28;20469;-51
2023/03/12 06:00:30;;;;;;;16.90;12.67;;;2.10;99.90;;;;;;5062821;28;20479;-50
2023/03/12 06:02:57;;;;;;;17.63;13.23;;;2.40;99.90;;;;;;5056394;28;20483;-52
2023/03/12 06:05:24;;;;;;;17.57;13.47;;;2.20;99.90;;;;;;5056202;28;20545;-51
2023/03/12 06:07:52;;;;;;;13.83;12.20;;;2.10;99.90;;;;;;5056315;28;20542;-50
2023/03/12 06:10:19;;;;;;;15.47;12.50;;;2.00;99.90;;;;;;5056005;28;20486;-49
2023/03/12 06:12:46;;;;;;;16.83;14.83;;;2.30;99.90;;;;;;5057914;28;20525;-50
2023/03/12 06:15:13;;;;;;;14.50;12.60;;;2.30;99.90;;;;;;5057783;28;20532;-49
2023/03/12 06:17:40;;;;;;;16.20;12.73;;;2.10;99.90;;;;;;5057274;28;20591;-52
2023/03/12 06:20:09;;;;;;;17.10;13.33;;;2.30;99.90;;;;;;5057278;28;20526;-51
2023/03/12 06:22:35;;;;;;;18.73;13.67;;;2.30;99.90;;;;;;5057446;28;20467;-50
2023/03/12 06:25:05;;;;;;;20.27;14.80;;;2.40;99.90;;;;;;5057666;28;20527;-54
2023/03/12 06:27:32;;;;;;;30.50;20.90;;;2.60;99.90;;;;;;5066386;28;20521;-49
2023/03/12 06:29:59;;;;;;;26.20;19.27;;;2.80;99.90;;;;;;5076643;28;20915;-50
2023/03/12 06:32:26;;;;;;;19.50;16.70;;;2.90;99.90;;;;;;5077556;28;20516;-50
2023/03/12 06:34:53;;;;;;;22.90;15.10;;;2.90;99.90;;;;;;5077048;28;20533;-49
2023/03/12 06:37:19;;;;;;;18.17;13.80;;;2.90;99.90;;;;;;5077232;28;20541;-50
2023/03/12 06:39:47;;;;;;;15.37;13.00;;;3.00;99.90;;;;;;5077092;28;20538;-50
2023/03/12 06:42:16;;;;;;;18.13;13.80;;;3.00;99.90;;;;;;5060069;28;20829;-50
2023/03/12 06:44:43;;;;;;;16.03;13.60;;;3.10;99.90;;;;;;5058235;28;21024;-52
2023/03/12 06:47:10;;;;;;;18.70;14.20;;;2.90;99.90;;;;;;5074488;28;20896;-50
2023/03/12 06:49:37;;;;;;;19.53;16.10;;;2.40;99.90;;;;;;5075734;28;20451;-50
2023/03/12 06:52:05;;;;;;;23.60;18.77;;;2.40;99.90;;;;;;5076431;28;20434;-50
2023/03/12 06:54:32;;;;;;;22.87;18.17;;;2.70;99.90;;;;;;5076754;28;20473;-50
2023/03/12 06:56:59;;;;;;;19.27;15.87;;;2.90;99.90;;;;;;5036668;28;20546;-50
2023/03/12 06:59:28;;;;;;;17.43;14.57;;;3.00;99.90;;;;;;5036776;28;20531;-53
2023/03/12 07:01:56;;;;;;;17.67;14.17;;;2.80;99.90;;;;;;5035687;28;20443;-50
2023/03/12 07:04:23;;;;;;;20.07;15.80;;;2.90;99.90;;;;;;5036407;28;20494;-50
2023/03/12 07:06:50;;;;;;;19.73;15.70;;;2.90;99.90;;;;;;5035883;28;20507;-50
2023/03/12 07:09:17;;;;;;;17.00;14.10;;;2.90;99.90;;;;;;5044283;28;20477;-51
2023/03/12 07:11:44;;;;;;;15.97;14.33;;;3.00;99.90;;;;;;5044049;28;20450;-50
2023/03/12 07:14:11;;;;;;;20.00;16.03;;;3.10;99.90;;;;;;5056014;28;20472;-51
2023/03/12 07:16:39;;;;;;;19.37;15.83;;;3.10;99.90;;;;;;5055720;28;20546;-50
2023/03/12 07:19:06;;;;;;;20.07;17.93;;;3.20;99.90;;;;;;5056210;28;20468;-50
2023/03/12 07:21:33;;;;;;;21.23;17.33;;;3.20;99.90;;;;;;5055634;28;20476;-52
2023/03/12 07:24:05;;;;;;;19.17;16.37;;;3.30;99.90;;;;;;5055978;28;21042;-50
2023/03/12 07:26:33;;;;;;;23.97;17.70;;;3.30;99.90;;;;;;5055622;28;20464;-50
2023/03/12 07:29:00;;;;;;;19.37;13.80;;;3.30;99.90;;;;;;5055654;28;20575;-51
2023/03/12 07:31:27;;;;;;;19.00;16.20;;;3.30;99.90;;;;;;5055646;28;20472;-50
2023/03/12 07:33:55;;;;;;;19.80;16.10;;;3.30;99.90;;;;;;5056031;28;20467;-53
2023/03/12 07:36:22;;;;;;;19.97;15.97;;;3.30;99.90;;;;;;5058046;28;20475;-52
2023/03/12 07:38:49;;;;;;;19.43;16.50;;;3.20;99.90;;;;;;5055462;28;20468;-51
2023/03/12 07:41:16;;;;;;;19.80;16.23;;;3.10;99.90;;;;;;5055485;28;20475;-50
2023/03/12 07:43:42;;;;;;;18.37;15.00;;;2.80;99.90;;;;;;5058436;28;20532;-51
2023/03/12 07:46:09;;;;;;;20.57;18.47;;;3.00;99.90;;;;;;5054585;28;20544;-51
2023/03/12 07:48:37;;;;;;;21.27;18.30;;;3.10;99.90;;;;;;5055376;28;21008;-52
2023/03/12 07:51:06;;;;;;;15.53;13.93;;;3.30;99.90;;;;;;5055226;28;20436;-51
2023/03/12 07:53:33;;;;;;;14.83;12.50;;;3.40;99.90;;;;;;5055212;28;20479;-51
2023/03/12 07:56:00;;;;;;;17.37;13.80;;;3.10;99.90;;;;;;5054890;28;20471;-50
2023/03/12 07:58:27;;;;;;;17.27;14.40;;;3.10;99.90;;;;;;5058075;28;20540;-50
2023/03/12 08:00:55;;;;;;;22.57;16.70;;;2.80;99.90;;;;;;5055077;28;20512;-51
2023/03/12 08:03:22;;;;;;;20.17;16.67;;;2.90;99.90;;;;;;5055408;28;20514;-50
2023/03/12 08:06:00;;;;;;;19.77;16.10;;;3.00;99.90;;;;;;5052267;28;20472;-52
2023/03/12 08:08:29;;;;;;;16.20;14.33;;;3.20;99.90;;;;;;5054603;28;20486;-50
2023/03/12 08:10:57;;;;;;;17.17;14.27;;;3.40;99.90;;;;;;5055503;28;20443;-52
2023/03/12 08:13:24;;;;;;;16.50;14.63;;;3.50;99.90;;;;;;5055106;28;20444;-50
2023/03/12 08:15:52;;;;;;;15.30;12.60;;;3.50;99.90;;;;;;5052831;28;20537;-51
2023/03/12 08:18:19;;;;;;;17.10;13.80;;;3.50;99.90;;;;;;5054591;28;20555;-51
2023/03/12 08:20:49;;;;;;;12.07;10.00;;;3.50;99.90;;;;;;5051350;28;20527;-51
2023/03/12 08:23:16;;;;;;;12.30;10.23;;;3.50;99.90;;;;;;5053251;28;20539;-51
2023/03/12 08:25:45;;;;;;;21.50;15.40;;;3.50;99.90;;;;;;5056172;28;20527;-50
2023/03/12 08:28:12;;;;;;;14.13;11.40;;;3.40;99.90;;;;;;5051398;28;20467;-52
2023/03/12 08:30:39;;;;;;;11.57;10.20;;;3.50;99.90;;;;;;5056120;28;20465;-50
2023/03/12 08:33:06;;;;;;;12.93;11.60;;;3.50;99.90;;;;;;5055898;28;20986;-50
2023/03/12 08:35:33;;;;;;;13.60;11.30;;;3.00;99.90;;;;;;5057263;28;20467;-53
2023/03/12 08:38:00;;;;;;;14.47;12.30;;;3.10;99.90;;;;;;5053270;28;20454;-49
2023/03/12 08:40:27;;;;;;;13.30;11.67;;;3.20;99.90;;;;;;5054160;28;20468;-51
2023/03/12 08:42:55;;;;;;;15.30;12.97;;;3.50;99.90;;;;;;5055376;28;20435;-51
2023/03/12 08:45:22;;;;;;;14.67;13.10;;;3.60;99.90;;;;;;5054479;28;20540;-50
2023/03/12 08:47:49;;;;;;;12.10;10.37;;;3.80;99.90;;;;;;5056138;28;20494;-50
2023/03/12 08:50:16;;;;;;;12.00;10.60;;;3.50;99.90;;;;;;5070551;28;20450;-51
2023/03/12 08:52:44;;;;;;;10.20;8.80;;;3.70;99.90;;;;;;5072863;28;20452;-52
2023/03/12 08:55:11;;;;;;;11.43;9.37;;;3.70;99.90;;;;;;5059398;28;20568;-50
2023/03/12 08:57:38;;;;;;;11.67;9.33;;;3.60;99.90;;;;;;5058625;28;20466;-50
2023/03/12 09:00:13;;;;;;;11.60;9.20;;;3.60;99.90;;;;;;5058639;28;20518;-50
2023/03/12 09:02:42;;;;;;;11.27;10.00;;;3.60;99.90;;;;;;5067986;28;20463;-50
2023/03/12 09:05:10;;;;;;;9.93;8.90;;;3.70;99.90;;;;;;5051718;28;20467;-52
2023/03/12 09:07:37;;;;;;;11.63;10.40;;;3.80;99.90;;;;;;5055587;28;20475;-50
2023/03/12 09:10:05;;;;;;;12.13;10.30;;;3.80;99.90;;;;;;5055444;28;20897;-52
2023/03/12 09:12:32;;;;;;;14.77;11.53;;;3.40;99.90;;;;;;5053504;28;20474;-53
2023/03/12 09:14:58;;;;;;;17.00;12.73;;;3.30;99.90;;;;;;5051927;28;20442;-52
2023/03/12 09:17:28;;;;;;;16.47;12.80;;;3.60;99.90;;;;;;5055130;28;20975;-51
2023/03/12 09:19:55;;;;;;;16.03;14.43;;;3.60;99.90;;;;;;5053421;28;20468;-51
2023/03/12 09:22:22;;;;;;;15.80;12.73;;;3.60;99.90;;;;;;5053414;28;20450;-50
2023/03/12 09:24:49;;;;;;;12.97;11.67;;;3.80;99.90;;;;;;5049817;28;20533;-50
2023/03/12 09:27:16;;;;;;;13.80;12.13;;;3.80;99.90;;;;;;5060991;28;20547;-51
2023/03/12 09:29:43;;;;;;;13.57;12.17;;;3.80;99.90;;;;;;5049809;28;20503;-53
2023/03/12 09:32:10;;;;;;;14.17;12.70;;;3.80;99.90;;;;;;5057017;28;20573;-52
2023/03/12 09:34:38;;;;;;;15.23;12.20;;;3.80;99.90;;;;;;5052678;28;20939;-50
2023/03/12 09:37:05;;;;;;;17.60;14.70;;;3.70;99.90;;;;;;5048153;28;20501;-51
2023/03/12 09:39:32;;;;;;;12.93;11.60;;;3.60;99.90;;;;;;5048505;28;20531;-52
2023/03/12 09:41:59;;;;;;;14.23;11.43;;;3.50;99.90;;;;;;5053590;28;20449;-51
2023/03/12 09:44:34;;;;;;;17.07;13.73;;;3.40;99.90;;;;;;5059148;28;20529;-53
2023/03/12 09:47:05;;;;;;;14.57;11.93;;;3.60;99.90;;;;;;5056854;28;20520;-49
2023/03/12 09:49:36;;;;;;;14.53;12.27;;;3.20;99.90;;;;;;5057529;28;20567;-52
2023/03/12 09:52:18;;;;;;;15.47;13.60;;;3.40;99.90;;;;;;5054744;28;20486;-49
2023/03/12 09:54:52;;;;;;;15.47;12.90;;;3.60;99.90;;;;;;5054624;28;20495;-50
2023/03/12 09:57:23;;;;;;;20.57;12.97;;;3.60;99.90;;;;;;5053896;28;20493;-53
2023/03/12 09:59:51;;;;;;;15.73;12.07;;;3.60;99.90;;;;;;5050551;28;20856;-52
2023/03/12 10:02:44;;;;;;;18.60;12.93;;;3.60;99.90;;;;;;5053230;28;20829;-49
2023/03/12 10:05:18;;;;;;;13.13;11.73;;;3.50;99.90;;;;;;5052056;28;20560;-50
2023/03/12 10:07:52;;;;;;;14.17;12.67;;;3.50;99.90;;;;;;5052426;28;20600;-52
2023/03/12 10:10:43;;;;;;;14.57;12.73;;;3.50;99.90;;;;;;5050574;28;20475;-51
2023/03/12 10:13:23;;;;;;;19.77;14.27;;;3.70;99.90;;;;;;5053963;28;20455;-50
2023/03/12 10:16:02;;;;;;;14.60;12.47;;;3.80;99.90;;;;;;5057034;28;20507;-52
2023/03/12 10:18:44;;;;;;;14.47;10.97;;;3.60;99.90;;;;;;5053412;28;20538;-51
2023/03/12 10:21:20;;;;;;;12.90;11.03;;;3.40;99.90;;;;;;5050879;28;20507;-54
2023/03/12 10:24:03;;;;;;;12.40;10.40;;;3.40;99.90;;;;;;5053629;28;20479;-50
2023/03/12 10:26:35;;;;;;;11.87;9.43;;;3.60;99.90;;;;;;5053198;28;20497;-52
2023/03/12 10:29:08;;;;;;;12.40;11.10;;;3.80;99.90;;;;;;5050477;28;20534;-53
2023/03/12 10:31:43;;;;;;;12.90;10.77;;;3.90;99.90;;;;;;5054273;28;20571;-51
2023/03/12 10:34:18;;;;;;;12.10;10.17;;;4.10;99.90;;;;;;5054333;28;20476;-52
2023/03/12 10:36:46;;;;;;;12.27;11.00;;;4.30;99.90;;;;;;5053851;28;20501;-50
2023/03/12 10:39:16;;;;;;;12.10;10.27;;;4.30;99.90;;;;;;5053408;28;20484;-51
2023/03/12 10:41:45;;;;;;;11.70;10.20;;;4.40;99.90;;;;;;5053737;28;20808;-51
2023/03/12 10:44:19;;;;;;;11.17;9.00;;;4.40;99.90;;;;;;5053757;28;20496;-51
2023/03/12 10:47:05;;;;;;;11.63;9.10;;;4.10;99.90;;;;;;5063099;28;20544;-50
2023/03/12 10:49:34;;;;;;;11.43;9.63;;;4.30;99.90;;;;;;5073825;28;20539;-52
2023/03/12 10:52:05;;;;;;;10.43;8.90;;;4.50;99.90;;;;;;5075782;28;20447;-51
2023/03/12 10:54:36;;;;;;;13.00;10.47;;;4.60;99.90;;;;;;5059758;28;20455;-51
2023/03/12 10:57:03;;;;;;;12.67;11.23;;;4.60;99.90;;;;;;5039570;28;20471;-51
2023/03/12 10:59:33;;;;;;;12.30;10.20;;;4.70;99.90;;;;;;5056749;28;20537;-51
2023/03/12 11:02:00;;;;;;;11.60;10.10;;;4.70;99.90;;;;;;5040182;28;20521;-52
2023/03/12 11:04:30;;;;;;;13.57;11.57;;;4.60;99.90;;;;;;5034531;28;20956;-50
2023/03/12 11:07:19;;;;;;;13.60;10.10;;;4.60;99.90;;;;;;5044563;28;20465;-50
2023/03/12 11:10:12;;;;;;;12.57;9.77;;;4.70;99.90;;;;;;5075229;28;20530;-51
2023/03/12 11:12:40;;;;;;;10.80;9.30;;;4.90;99.90;;;;;;5075496;28;20472;-51
2023/03/12 11:15:21;;;;;;;12.00;10.80;;;4.90;99.90;;;;;;5075560;28;20515;-52
2023/03/12 11:17:48;;;;;;;14.23;10.40;;;4.90;99.90;;;;;;5074049;28;20521;-52
2023/03/12 11:20:25;;;;;;;11.47;10.37;;;4.90;99.90;;;;;;5075615;28;20435;-50
2023/03/12 11:22:52;;;;;;;11.60;10.17;;;4.80;99.90;;;;;;5074877;28;20477;-50
2023/03/12 11:25:26;;;;;;;11.30;10.20;;;4.70;99.90;;;;;;5073693;28;20481;-51
2023/03/12 11:27:55;;;;;;;10.77;9.67;;;4.70;99.90;;;;;;5055134;28;20556;-49
2023/03/12 11:30:26;;;;;;;11.23;9.50;;;4.50;99.90;;;;;;5055289;28;20540;-50
2023/03/12 11:32:54;;;;;;;13.50;10.03;;;4.80;99.90;;;;;;5055750;28;20441;-50
2023/03/12 11:35:30;;;;;;;12.40;11.07;;;4.90;99.90;;;;;;5054875;28;20478;-50
2023/03/12 11:38:03;;;;;;;13.10;11.70;;;5.00;99.90;;;;;;5054527;28;21018;-49
2023/03/12 11:40:50;;;;;;;13.40;11.40;;;5.00;99.90;;;;;;5059501;28;20439;-50
2023/03/12 11:43:34;;;;;;;14.57;11.07;;;5.00;99.90;;;;;;5075131;28;20531;-51
2023/03/12 11:46:17;;;;;;;11.03;9.77;;;5.20;99.90;;;;;;5074125;28;20444;-52
2023/03/12 11:48:52;;;;;;;12.80;10.50;;;5.30;99.90;;;;;;5066642;28;20449;-49
2023/03/12 11:51:30;;;;;;;16.37;10.40;;;5.40;99.90;;;;;;5054327;28;20469;-50
2023/03/12 11:54:25;;;;;;;10.87;9.47;;;5.50;99.90;;;;;;5054722;28;20469;-50
2023/03/12 11:56:56;;;;;;;10.50;9.17;;;5.40;99.90;;;;;;5054647;28;20549;-50
2023/03/12 11:59:38;;;;;;;11.20;8.60;;;5.60;99.90;;;;;;5054862;28;20495;-52
2023/03/12 12:02:21;;;;;;;10.00;8.97;;;5.60;99.90;;;;;;5053619;28;20512;-51
2023/03/12 12:05:18;;;;;;;9.23;8.20;;;5.60;99.90;;;;;;5054473;28;21019;-51
2023/03/12 12:07:55;;;;;;;9.37;8.43;;;5.70;99.90;;;;;;5054464;28;20641;-50
2023/03/12 12:10:28;;;;;;;9.97;9.07;;;5.60;99.90;;;;;;5053883;28;20571;-50
2023/03/12 12:13:06;;;;;;;9.87;8.83;;;5.60;99.90;;;;;;5053902;28;20478;-51
2023/03/12 12:15:38;;;;;;;10.10;8.20;;;5.60;99.90;;;;;;5060135;28;20472;-51
2023/03/12 12:18:24;;;;;;;9.93;8.20;;;5.70;99.90;;;;;;5074921;28;20555;-55
2023/03/12 12:20:59;;;;;;;8.57;7.53;;;5.10;99.90;;;;;;5074413;28;20523;-51
2023/03/12 12:23:35;;;;;;;15.37;11.50;;;4.90;99.90;;;;;;5074744;28;20444;-53
2023/03/12 12:26:07;;;;;;;9.57;8.13;;;4.80;99.90;;;;;;5074912;28;20444;-52
2023/03/12 12:29:04;;;;;;;10.23;9.23;;;5.00;99.90;;;;;;5074595;28;20508;-51
2023/03/12 12:31:39;;;;;;;12.40;9.03;;;5.20;99.90;;;;;;5048645;28;20444;-51
2023/03/12 12:34:34;;;;;;;11.60;9.30;;;5.40;99.90;;;;;;5075438;28;20441;-51
2023/03/12 12:37:22;;;;;;;10.33;8.63;;;5.50;99.90;;;;;;5030527;28;20502;-52
2023/03/12 12:39:56;;;;;;;9.77;8.77;;;5.30;99.90;;;;;;5050223;28;20476;-51
2023/03/12 12:42:27;;;;;;;8.00;7.20;;;5.20;99.90;;;;;;5054486;28;20874;-51
2023/03/12 12:44:58;;;;;;;8.37;7.47;;;5.40;99.90;;;;;;5054293;28;20472;-51
2023/03/12 12:47:34;;;;;;;8.77;7.87;;;5.40;99.90;;;;;;5052970;28;20552;-53
2023/03/12 12:50:03;;;;;;;10.40;8.20;;;5.50;99.90;;;;;;5056110;28;20560;-50
2023/03/12 12:52:30;;;;;;;9.97;8.30;;;5.50;99.90;;;;;;5073801;28;20468;-52
2023/03/12 12:55:06;;;;;;;8.80;7.97;;;5.50;99.90;;;;;;5073944;28;20773;-50
2023/03/12 12:57:38;;;;;;;9.40;7.97;;;5.60;99.90;;;;;;5074513;28;20452;-51
2023/03/12 13:00:27;;;;;;;10.67;8.10;;;5.40;99.90;;;;;;5073949;28;20479;-51